Time;durP1;ratioP1;P1;durP2;ratioP2;P2;SDS_P1;SDS_P2;PMS_P1;PMS_P2;Temp;Humidity;BMP_temperature;BMP_pressure;BME280_temperature;BME280_humidity;BME280_pressure;Samples;Min_cycle;Max_cycle;Signal;HPM_P1;HPM_P2
2022/09/28 00:01:04;;;;;;;4.18;3.78;;;;;;;9.03;93.92;98868.88;4949181;28;20059;-78
2022/09/28 00:03:29;;;;;;;4.00;3.47;;;;;;;9.07;93.60;98870.53;4950783;29;20042;-78
2022/09/28 00:06:00;;;;;;;7.05;3.33;;;;;;;9.12;92.84;98864.22;4949111;28;20035;-78
2022/09/28 00:08:25;;;;;;;3.90;3.60;;;;;;;9.12;93.03;98864.22;4950661;28;20038;-79
2022/09/28 00:10:55;;;;;;;4.05;3.67;;;;;;;9.16;93.24;98862.38;4949520;29;20040;-78
2022/09/28 00:13:20;;;;;;;3.85;3.55;;;;;;;9.08;92.49;98865.19;4948313;28;20038;-78
2022/09/28 00:15:45;;;;;;;6.47;3.80;;;;;;;9.12;92.64;98861.59;4950933;29;20043;-78
2022/09/28 00:18:10;;;;;;;3.67;3.22;;;;;;;9.15;92.03;98855.38;4947646;28;20075;-78
2022/09/28 00:20:36;;;;;;;4.03;3.50;;;;;;;9.15;92.00;98856.25;4950973;28;20038;-78
2022/09/28 00:23:02;;;;;;;5.30;3.97;;;;;;;9.06;91.86;98853.00;4949269;28;20062;-78
2022/09/28 00:25:28;;;;;;;7.00;3.45;;;;;;;9.03;91.82;98856.56;4948436;29;20410;-79
2022/09/28 00:27:56;;;;;;;3.85;3.55;;;;;;;9.04;92.29;98855.69;4949677;28;20433;-78
2022/09/28 00:30:21;;;;;;;3.67;3.38;;;;;;;9.08;92.16;98853.81;4947935;28;20050;-78
2022/09/28 00:32:46;;;;;;;3.92;3.22;;;;;;;9.05;92.24;98853.91;4950575;28;20475;-79
2022/09/28 00:35:12;;;;;;;3.72;3.42;;;;;;;9.05;92.39;98838.97;4948773;29;20658;-78
2022/09/28 00:37:38;;;;;;;4.72;3.53;;;;;;;9.10;92.66;98842.34;4949703;28;20035;-79
2022/09/28 00:40:04;;;;;;;7.38;3.70;;;;;;;9.19;91.96;98843.84;4949510;28;20035;-79
2022/09/28 00:42:29;;;;;;;4.00;3.33;;;;;;;9.23;92.29;98844.66;4948243;28;20027;-78
2022/09/28 00:44:56;;;;;;;3.60;3.17;;;;;;;9.29;91.35;98837.44;4950796;29;20059;-78
2022/09/28 00:47:36;;;;;;;3.85;3.50;;;;;;;9.36;91.37;98835.50;4947605;29;20069;-78
2022/09/28 00:50:23;;;;;;;4.40;4.00;;;;;;;9.46;90.69;98836.97;4958450;28;20043;-78
2022/09/28 00:53:01;;;;;;;4.85;3.50;;;;;;;9.49;90.25;98828.97;4951611;28;20082;-78
2022/09/28 00:55:41;;;;;;;4.20;3.60;;;;;;;9.55;90.41;98831.44;4947704;29;20044;-79
2022/09/28 00:58:10;;;;;;;3.53;3.22;;;;;;;9.54;89.43;98826.22;4946742;28;20052;-78
2022/09/28 01:00:39;;;;;;;3.08;2.80;;;;;;;9.54;89.63;98832.34;4954996;29;20039;-78
2022/09/28 01:03:05;;;;;;;3.55;3.25;;;;;;;9.52;89.49;98828.88;4950446;29;20122;-78
2022/09/28 01:05:31;;;;;;;3.63;3.33;;;;;;;9.56;90.04;98829.66;4947428;28;20080;-78
2022/09/28 01:07:57;;;;;;;3.20;2.90;;;;;;;9.60;89.65;98828.66;4950683;29;20044;-79
2022/09/28 01:10:23;;;;;;;3.53;3.22;;;;;;;9.62;89.53;98830.34;4956875;29;20054;-78
2022/09/28 01:12:48;;;;;;;3.55;3.25;;;;;;;9.61;88.86;98831.22;4946971;29;20037;-79
2022/09/28 01:15:14;;;;;;;3.30;3.00;;;;;;;9.60;89.15;98824.25;4948109;28;20039;-79
2022/09/28 01:17:53;;;;;;;3.75;3.35;;;;;;;9.62;89.78;98825.06;4960252;28;20027;-79
2022/09/28 01:20:32;;;;;;;3.95;3.55;;;;;;;9.59;88.90;98819.91;4951212;29;20122;-79
2022/09/28 01:23:22;;;;;;;4.05;3.65;;;;;;;9.53;89.01;98822.69;4951205;28;20059;-79
2022/09/28 01:26:25;;;;;;;6.95;3.28;;;;;;;9.48;89.10;98826.38;4945547;29;20086;-79
2022/09/28 01:28:59;;;;;;;3.53;3.22;;;;;;;9.43;89.12;98814.22;4959432;28;20047;-79
2022/09/28 01:31:30;;;;;;;3.72;3.42;;;;;;;9.43;89.32;98815.97;4947921;28;20039;-79
2022/09/28 01:34:02;;;;;;;3.50;3.17;;;;;;;9.33;89.23;98810.13;4961456;28;20040;-78
2022/09/28 01:36:49;;;;;;;4.03;3.47;;;;;;;9.20;90.15;98809.59;4947154;28;20588;-79
2022/09/28 01:39:27;;;;;;;4.95;3.88;;;;;;;9.11;89.94;98801.94;4944302;29;20043;-79
2022/09/28 01:42:01;;;;;;;3.42;3.13;;;;;;;9.06;90.32;98806.47;4944905;29;20063;-79
2022/09/28 01:44:30;;;;;;;3.78;3.38;;;;;;;9.03;90.31;98797.81;4947067;28;20039;-79
2022/09/28 01:47:02;;;;;;;5.07;4.22;;;;;;;8.92;90.29;98801.59;4949108;29;20043;-79
2022/09/28 01:49:34;;;;;;;3.97;3.65;;;;;;;8.85;91.12;98804.44;4944787;29;20108;-79
2022/09/28 01:52:16;;;;;;;4.07;3.47;;;;;;;8.81;90.85;98805.44;4952791;28;20505;-78
2022/09/28 01:54:59;;;;;;;6.18;3.28;;;;;;;8.69;91.30;98802.22;4961283;28;20031;-79
2022/09/28 01:57:39;;;;;;;3.72;3.42;;;;;;;8.61;91.51;98791.03;4928327;29;20063;-79
2022/09/28 02:00:09;;;;;;;4.13;3.60;;;;;;;8.55;92.30;98794.69;4946392;28;20203;-78
2022/09/28 02:02:54;;;;;;;4.38;3.95;;;;;;;8.52;91.70;98792.13;4944338;29;20039;-78
2022/09/28 02:05:31;;;;;;;3.70;3.40;;;;;;;8.50;91.81;98782.56;4945609;28;20602;-79
2022/09/28 02:08:03;;;;;;;3.70;3.40;;;;;;;8.49;91.42;98786.97;4948119;29;20039;-79
2022/09/28 02:10:42;;;;;;;5.47;3.38;;;;;;;8.44;91.31;98777.47;4928896;29;20036;-79
2022/09/28 02:13:18;;;;;;;4.28;3.78;;;;;;;8.39;91.69;98784.59;4953801;29;20046;-79
2022/09/28 02:15:50;;;;;;;3.95;3.55;;;;;;;8.34;91.42;98787.31;4946420;28;20040;-79
2022/09/28 02:18:16;;;;;;;3.83;3.17;;;;;;;8.30;91.92;98785.66;4948321;28;20035;-79
2022/09/28 02:21:04;;;;;;;4.00;3.60;;;;;;;8.23;91.83;98779.69;4948971;29;20074;-79
2022/09/28 02:23:36;;;;;;;3.85;3.45;;;;;;;8.18;91.92;98781.56;4946459;29;20054;-78
2022/09/28 02:26:06;;;;;;;4.38;3.35;;;;;;;8.14;92.75;98782.53;4948270;29;20121;-78
2022/09/28 02:28:32;;;;;;;4.18;3.38;;;;;;;8.09;92.95;98774.75;4954075;29;20039;-79
2022/09/28 02:30:57;;;;;;;4.10;3.17;;;;;;;8.06;92.96;98766.94;4950476;28;20402;-78
2022/09/28 02:33:35;;;;;;;3.40;3.10;;;;;;;7.99;92.90;98768.03;4947816;29;20494;-78
2022/09/28 02:36:02;;;;;;;4.70;3.70;;;;;;;7.89;93.36;98775.25;4958712;28;20055;-79
2022/09/28 02:38:31;;;;;;;4.25;3.80;;;;;;;7.79;93.96;98768.47;4950999;28;20521;-79
2022/09/28 02:41:10;;;;;;;3.97;3.60;;;;;;;7.71;94.73;98770.41;4963109;28;20038;-79
2022/09/28 02:43:53;;;;;;;4.05;3.50;;;;;;;7.62;95.65;98771.50;4968871;23;20407;-78
2022/09/28 02:46:48;;;;;;;4.85;3.53;;;;;;;7.61;95.58;98768.91;4933354;29;20088;-78
2022/09/28 02:49:36;;;;;;;4.95;3.72;;;;;;;7.52;95.25;98769.97;4934679;29;20038;-76
2022/09/28 02:52:11;;;;;;;3.97;3.50;;;;;;;7.40;95.62;98772.84;4929714;29;20422;-77
2022/09/28 02:55:09;;;;;;;7.80;3.67;;;;;;;7.36;96.78;98773.81;4920686;29;20048;-78
2022/09/28 02:57:40;;;;;;;5.53;3.95;;;;;;;7.25;97.40;98769.63;4919619;29;20404;-78
2022/09/28 03:00:17;;;;;;;3.55;3.25;;;;;;;7.22;97.35;98763.59;4907783;29;20124;-77
2022/09/28 03:03:08;;;;;;;3.33;2.85;;;;;;;7.16;97.75;98761.13;4906442;29;20411;-77
2022/09/28 03:06:04;;;;;;;4.88;3.33;;;;;;;7.09;97.96;98767.38;4900846;29;20044;-78
2022/09/28 03:08:41;;;;;;;3.58;3.20;;;;;;;7.00;98.57;98760.56;4911033;29;20589;-77
2022/09/28 03:11:19;;;;;;;5.45;3.58;;;;;;;6.89;98.87;98754.66;4910398;29;20032;-77
2022/09/28 03:13:47;;;;;;;4.90;4.05;;;;;;;6.85;99.34;98759.09;4914473;29;20088;-78
2022/09/28 03:16:16;;;;;;;5.35;4.13;;;;;;;6.83;99.42;98750.41;4916076;29;20081;-78
2022/09/28 03:18:43;;;;;;;3.90;3.50;;;;;;;6.80;99.71;98742.59;4906704;29;20452;-78
2022/09/28 03:21:13;;;;;;;3.30;3.00;;;;;;;6.75;100.00;98750.53;4925447;29;20036;-78
2022/09/28 03:23:39;;;;;;;3.60;3.30;;;;;;;6.67;99.90;98751.59;4912083;29;20036;-78
2022/09/28 03:26:07;;;;;;;8.25;5.63;;;;;;;6.65;100.00;98748.13;4924566;29;20099;-78
2022/09/28 03:28:35;;;;;;;6.70;5.30;;;;;;;6.61;100.00;98744.72;4906898;29;20496;-78
2022/09/28 03:31:00;;;;;;;4.32;3.28;;;;;;;6.58;100.00;98743.00;4921295;29;20047;-77
2022/09/28 03:33:26;;;;;;;3.75;3.35;;;;;;;6.57;100.00;98735.16;4909068;29;20032;-78
2022/09/28 03:35:51;;;;;;;3.55;3.25;;;;;;;6.53;100.00;98736.97;4906381;29;20127;-78
2022/09/28 03:38:18;;;;;;;3.90;3.50;;;;;;;6.50;100.00;98733.56;4910255;29;20083;-78
2022/09/28 03:40:51;;;;;;;5.50;3.20;;;;;;;6.47;100.00;98734.50;4909944;29;20043;-78
2022/09/28 03:43:17;;;;;;;3.88;3.10;;;;;;;6.40;100.00;98735.47;4908589;29;20036;-77
2022/09/28 03:45:42;;;;;;;4.03;3.63;;;;;;;6.32;100.00;98734.75;4908175;29;20054;-78
2022/09/28 03:48:07;;;;;;;4.25;3.60;;;;;;;6.25;100.00;98735.75;4907914;29;20048;-78
2022/09/28 03:50:33;;;;;;;3.22;2.92;;;;;;;6.20;100.00;98734.97;4924943;29;20036;-78
2022/09/28 03:53:03;;;;;;;4.55;3.35;;;;;;;6.09;100.00;98732.53;4908480;29;20036;-78
2022/09/28 03:55:29;;;;;;;3.70;3.40;;;;;;;6.03;100.00;98730.03;4925324;29;20525;-79
2022/09/28 03:57:54;;;;;;;3.88;3.42;;;;;;;6.00;100.00;98725.69;4923477;29;20123;-78
2022/09/28 04:00:20;;;;;;;4.05;3.58;;;;;;;5.99;100.00;98734.44;4897613;29;20047;-79
2022/09/28 04:02:45;;;;;;;3.30;3.00;;;;;;;5.98;100.00;98732.72;4918590;29;20040;-79
2022/09/28 04:05:11;;;;;;;4.70;3.65;;;;;;;5.95;100.00;98730.16;4927631;29;20040;-79
2022/09/28 04:07:36;;;;;;;4.82;3.38;;;;;;;5.94;100.00;98731.00;4908582;29;20068;-79
2022/09/28 04:10:02;;;;;;;4.97;3.40;;;;;;;6.02;100.00;98737.00;4923873;29;20029;-79
2022/09/28 04:12:27;;;;;;;4.90;3.35;;;;;;;6.09;100.00;98732.53;4910232;29;20032;-79
2022/09/28 04:14:52;;;;;;;3.85;3.55;;;;;;;6.21;100.00;98726.19;4911011;29;20031;-78
2022/09/28 04:17:18;;;;;;;3.58;3.28;;;;;;;6.32;100.00;98729.53;4917250;29;20039;-81
2022/09/28 04:19:45;;;;;;;3.65;3.35;;;;;;;6.48;100.00;98725.72;4913429;29;20130;-78
2022/09/28 04:22:29;;;;;;;7.53;3.38;;;;;;;6.55;100.00;98727.34;4909492;29;20161;-79
2022/09/28 04:24:54;;;;;;;3.38;3.08;;;;;;;6.64;100.00;98726.28;4910180;29;20040;-79
2022/09/28 04:30:04;;;;;;;3.90;3.60;;;;;;;6.90;100.00;98723.16;4909086;29;20047;-79
2022/09/28 04:32:31;;;;;;;3.92;3.53;;;;;;;7.03;100.00;98721.16;4919210;29;20439;-78
2022/09/28 04:34:56;;;;;;;4.45;3.50;;;;;;;7.15;100.00;98712.16;4911467;29;20031;-79
2022/09/28 04:37:22;;;;;;;4.40;3.45;;;;;;;7.18;100.00;98714.72;4914456;29;20047;-78
2022/09/28 04:39:48;;;;;;;4.38;3.97;;;;;;;7.21;100.00;98712.03;4905251;29;20429;-78
2022/09/28 04:42:17;;;;;;;3.72;3.42;;;;;;;7.21;100.00;98702.41;4899157;29;20032;-78
2022/09/28 04:44:43;;;;;;;3.75;3.45;;;;;;;7.16;100.00;98695.53;4910962;29;20072;-78
2022/09/28 04:47:08;;;;;;;4.13;3.72;;;;;;;7.12;99.88;98699.97;4909987;29;20529;-78
2022/09/28 04:49:56;;;;;;;4.28;3.22;;;;;;;7.09;100.00;98688.69;4917668;29;20161;-77
2022/09/28 04:52:29;;;;;;;4.43;3.53;;;;;;;7.04;99.89;98691.41;4908695;29;20056;-78
2022/09/28 04:54:55;;;;;;;4.22;3.17;;;;;;;6.99;100.00;98685.38;4908496;29;20036;-78
2022/09/28 04:57:23;;;;;;;4.45;3.70;;;;;;;6.88;99.26;98688.22;4913174;29;20056;-78
2022/09/28 04:59:48;;;;;;;4.57;3.50;;;;;;;6.86;99.90;98678.66;4910186;29;20044;-76
2022/09/28 05:02:13;;;;;;;4.07;3.50;;;;;;;6.83;100.00;98687.47;4907370;29;20091;-78
2022/09/28 05:04:59;;;;;;;3.85;3.35;;;;;;;6.86;100.00;98689.16;4910753;29;20481;-78
2022/09/28 05:07:42;;;;;;;4.32;3.42;;;;;;;6.85;100.00;98672.56;4905840;29;20045;-78
2022/09/28 05:10:07;;;;;;;3.70;3.40;;;;;;;6.78;100.00;98661.31;4904540;29;20051;-78
2022/09/28 05:12:34;;;;;;;4.40;4.00;;;;;;;6.73;100.00;98667.56;4906682;29;20028;-77
2022/09/28 05:14:59;;;;;;;5.18;3.60;;;;;;;6.78;100.00;98660.47;4903419;29;20040;-77
2022/09/28 05:17:25;;;;;;;5.40;4.10;;;;;;;6.84;100.00;98657.75;4906232;29;20499;-78
2022/09/28 05:19:59;;;;;;;7.28;5.10;;;;;;;6.85;100.00;98653.34;4905588;29;20036;-76
2022/09/28 05:22:24;;;;;;;5.15;4.65;;;;;;;6.90;100.00;98649.75;4905775;29;20141;-76
2022/09/28 05:24:50;;;;;;;4.43;4.03;;;;;;;6.96;100.00;98646.13;4907411;29;20117;-77
2022/09/28 05:27:16;;;;;;;4.20;3.80;;;;;;;7.03;100.00;98650.34;4910889;29;20059;-77
2022/09/28 05:29:44;;;;;;;3.95;3.50;;;;;;;7.09;100.00;98649.34;4910866;29;20115;-77
2022/09/28 05:32:28;;;;;;;4.63;4.05;;;;;;;7.13;100.00;98651.00;4907596;29;20103;-77
2022/09/28 05:35:05;;;;;;;4.60;4.20;;;;;;;7.12;100.00;98650.13;4905648;29;20040;-78
2022/09/28 05:37:38;;;;;;;3.90;3.60;;;;;;;7.10;100.00;98658.91;4906034;29;20036;-78
2022/09/28 05:40:04;;;;;;;4.60;4.10;;;;;;;7.05;100.00;98653.78;4907336;29;20033;-78
2022/09/28 05:42:30;;;;;;;4.68;4.25;;;;;;;7.07;100.00;98654.59;4904635;29;20032;-77
2022/09/28 05:44:59;;;;;;;4.88;4.15;;;;;;;7.09;100.00;98650.19;4902690;29;20060;-78
2022/09/28 05:47:26;;;;;;;4.90;3.97;;;;;;;7.13;100.00;98653.63;4911215;29;20036;-77
2022/09/28 05:49:52;;;;;;;4.05;3.70;;;;;;;7.21;100.00;98643.81;4905941;29;20482;-77
2022/09/28 05:52:17;;;;;;;4.50;4.07;;;;;;;7.27;100.00;98638.41;4910677;29;20051;-77
2022/09/28 05:54:43;;;;;;;9.02;3.92;;;;;;;7.37;100.00;98637.31;4906464;29;20147;-77
2022/09/28 05:57:09;;;;;;;4.18;3.75;;;;;;;7.51;100.00;98636.13;4908099;29;20032;-77
2022/09/28 05:59:35;;;;;;;6.97;4.72;;;;;;;7.63;100.00;98633.22;4912157;29;20064;-78
2022/09/28 06:02:01;;;;;;;4.72;4.30;;;;;;;7.75;99.83;98627.63;4906756;29;20033;-78
2022/09/28 06:04:27;;;;;;;4.68;4.18;;;;;;;7.85;99.65;98629.13;4911840;29;20032;-78
2022/09/28 06:06:53;;;;;;;4.40;4.00;;;;;;;7.96;99.52;98625.38;4907978;29;20392;-77
2022/09/28 06:09:20;;;;;;;4.85;4.45;;;;;;;8.04;99.05;98612.88;4892720;29;20507;-76
2022/09/28 06:12:01;;;;;;;6.72;5.22;;;;;;;8.16;98.90;98616.97;4908982;29;20381;-78
2022/09/28 06:14:45;;;;;;;5.00;4.50;;;;;;;8.23;99.06;98619.38;4909409;29;20028;-78
2022/09/28 06:17:10;;;;;;;4.53;4.05;;;;;;;8.24;97.67;98617.63;4913057;29;20044;-78
2022/09/28 06:19:37;;;;;;;5.15;4.65;;;;;;;8.16;97.83;98615.19;4908472;29;20598;-78
2022/09/28 06:22:23;;;;;;;4.90;4.40;;;;;;;8.18;99.02;98605.50;4910434;29;20476;-78
2022/09/28 06:24:56;;;;;;;4.90;4.40;;;;;;;8.19;99.56;98604.59;4907341;29;20045;-78
2022/09/28 06:27:23;;;;;;;8.93;5.68;;;;;;;8.19;100.00;98609.84;4907563;29;20496;-78
2022/09/28 06:29:48;;;;;;;6.57;5.07;;;;;;;8.35;100.00;98605.88;4907233;29;20035;-77
2022/09/28 06:32:13;;;;;;;5.78;5.07;;;;;;;8.51;100.00;98603.75;4909710;29;20051;-78
2022/09/28 06:34:41;;;;;;;5.05;4.55;;;;;;;8.64;98.96;98595.50;4915592;29;20043;-77
2022/09/28 06:37:08;;;;;;;5.57;5.07;;;;;;;8.76;98.42;98584.63;4918637;29;20040;-77
2022/09/28 06:39:34;;;;;;;5.72;5.00;;;;;;;8.83;97.69;98583.53;4906478;29;20032;-78
2022/09/28 06:42:02;;;;;;;6.07;4.72;;;;;;;8.91;98.04;98588.56;4910340;29;20036;-78
2022/09/28 06:44:36;;;;;;;6.28;5.10;;;;;;;8.92;98.10;98585.00;4920507;29;20092;-77
2022/09/28 06:47:20;;;;;;;5.05;4.53;;;;;;;8.98;98.23;98574.28;4923282;29;20562;-77
2022/09/28 06:50:02;;;;;;;5.85;4.90;;;;;;;9.07;97.19;98581.06;4902609;29;20058;-78
2022/09/28 06:52:53;;;;;;;5.43;4.93;;;;;;;9.20;97.11;98577.13;4910080;29;20475;-78
2022/09/28 06:55:47;;;;;;;6.63;4.75;;;;;;;9.40;96.74;98577.31;4923696;29;20115;-79
2022/09/28 06:58:18;;;;;;;7.32;4.30;;;;;;;9.53;95.99;98580.41;4892065;29;20039;-78
2022/09/28 07:00:44;;;;;;;4.95;4.55;;;;;;;9.62;94.64;98584.53;4908957;29;20385;-79
2022/09/28 07:03:12;;;;;;;5.32;4.88;;;;;;;9.65;94.53;98585.28;4921467;29;20037;-79
2022/09/28 07:05:55;;;;;;;5.63;5.00;;;;;;;9.79;94.58;98586.59;4907261;29;20407;-79
2022/09/28 07:08:40;;;;;;;6.60;4.75;;;;;;;9.91;93.74;98593.22;4924576;29;20032;-78
2022/09/28 07:11:25;;;;;;;7.50;4.97;;;;;;;10.02;93.39;98593.72;4908198;29;20104;-79
2022/09/28 07:14:18;;;;;;;4.90;4.38;;;;;;;10.15;92.53;98592.38;4908149;29;20064;-78
2022/09/28 07:16:44;;;;;;;6.78;5.22;;;;;;;10.26;91.69;98602.53;4906043;29;20147;-78
2022/09/28 07:19:10;;;;;;;4.70;4.20;;;;;;;10.38;91.86;98603.91;4908762;29;20036;-78
2022/09/28 07:21:35;;;;;;;5.60;4.88;;;;;;;10.52;90.97;98594.56;4904124;29;20534;-78
2022/09/28 07:24:02;;;;;;;4.95;4.50;;;;;;;10.52;89.26;98585.78;4898190;29;20033;-77
2022/09/28 07:26:46;;;;;;;7.18;5.10;;;;;;;10.40;89.18;98591.50;4907097;29;20615;-77
2022/09/28 07:29:28;;;;;;;4.63;4.22;;;;;;;10.31;90.08;98592.72;4905356;29;20041;-78
2022/09/28 07:32:09;;;;;;;6.30;5.68;;;;;;;10.37;90.48;98592.47;4906198;29;20645;-78
2022/09/28 07:34:43;;;;;;;5.90;5.30;;;;;;;10.51;90.63;98587.56;4908142;29;20510;-77
2022/09/28 07:37:14;;;;;;;5.95;5.10;;;;;;;10.64;89.47;98600.31;4906763;29;20099;-77
2022/09/28 07:42:28;;;;;;;7.97;4.75;;;;;;;10.85;89.17;98606.56;4906487;29;20080;-78
2022/09/28 07:44:53;;;;;;;4.60;4.20;;;;;;;10.93;88.64;98605.34;4905410;29;20032;-78
2022/09/28 07:47:25;;;;;;;5.05;4.55;;;;;;;11.00;87.98;98613.03;4908182;29;20471;-78
2022/09/28 07:50:10;;;;;;;4.95;4.45;;;;;;;11.06;87.53;98596.97;4925479;29;20089;-77
2022/09/28 07:52:51;;;;;;;5.40;4.72;;;;;;;11.09;86.66;98604.75;4909546;29;20064;-78
2022/09/28 07:55:27;;;;;;;5.00;4.60;;;;;;;11.15;86.41;98604.50;4905272;29;20491;-78
2022/09/28 07:58:11;;;;;;;5.07;4.57;;;;;;;11.23;85.98;98596.28;4906866;29;20081;-78
2022/09/28 08:01:06;;;;;;;4.88;4.38;;;;;;;11.20;84.41;98607.84;4905446;29;20096;-77
2022/09/28 08:03:34;;;;;;;7.90;5.10;;;;;;;11.18;85.09;98601.75;4922350;29;20177;-78
2022/09/28 08:06:03;;;;;;;5.63;5.13;;;;;;;11.27;85.15;98604.03;4919377;29;20036;-78
2022/09/28 08:08:31;;;;;;;6.82;5.70;;;;;;;11.34;84.42;98602.88;4908326;29;20052;-78
2022/09/28 08:10:57;;;;;;;11.30;5.50;;;;;;;11.46;84.73;98605.94;4920662;29;20064;-78
2022/09/28 08:13:44;;;;;;;7.10;6.25;;;;;;;11.64;84.37;98610.47;4891512;29;20048;-78
2022/09/28 08:16:32;;;;;;;8.65;6.70;;;;;;;11.83;84.40;98603.47;4907613;29;20456;-78
2022/09/28 08:19:08;;;;;;;6.30;5.70;;;;;;;12.06;83.85;98606.97;4905838;29;20415;-78
2022/09/28 08:21:46;;;;;;;5.97;5.38;;;;;;;12.18;82.84;98605.59;4921734;29;20043;-78
2022/09/28 08:24:14;;;;;;;6.95;6.18;;;;;;;12.20;83.19;98607.22;4904795;29;20040;-79
2022/09/28 08:26:39;;;;;;;6.20;5.60;;;;;;;12.14;83.31;98615.44;4921642;29;20436;-78
2022/09/28 08:29:05;;;;;;;10.38;6.68;;;;;;;12.09;83.79;98617.41;4906463;29;20062;-77
2022/09/28 08:31:42;;;;;;;11.82;7.30;;;;;;;12.13;84.28;98619.03;4906249;29;20051;-78
2022/09/28 08:34:37;;;;;;;9.65;8.10;;;;;;;12.13;83.32;98613.75;4904639;29;20036;-78
2022/09/28 08:37:15;;;;;;;11.88;8.68;;;;;;;12.08;83.18;98607.78;4907222;29;20423;-77
2022/09/28 08:40:17;;;;;;;10.98;9.68;;;;;;;12.07;82.53;98611.34;4907075;29;20076;-78
2022/09/28 08:43:15;;;;;;;14.18;10.38;;;;;;;12.07;83.18;98613.97;4909007;29;20435;-79
2022/09/28 08:46:00;;;;;;;9.88;8.88;;;;;;;12.16;82.96;98612.75;4911699;29;20043;-78
2022/09/28 08:48:52;;;;;;;11.35;9.88;;;;;;;12.26;82.13;98608.75;4906400;29;20503;-78
2022/09/28 08:51:52;;;;;;;14.35;10.75;;;;;;;12.39;82.69;98609.06;4909712;29;20035;-79
2022/09/28 08:54:48;;;;;;;11.05;8.85;;;;;;;12.55;79.68;98601.31;4896199;29;20033;-79
2022/09/28 08:57:59;;;;;;;12.02;10.10;;;;;;;12.41;77.75;98608.06;4907248;29;20043;-78
2022/09/28 09:00:37;;;;;;;11.50;9.13;;;;;;;12.37;78.85;98605.66;4894982;29;20096;-78
2022/09/28 09:03:11;;;;;;;10.07;9.05;;;;;;;12.37;79.50;98605.66;4904895;29;20033;-78
2022/09/28 09:06:05;;;;;;;12.38;9.57;;;;;;;12.47;79.85;98601.66;4905736;29;20040;-79
2022/09/28 09:09:02;;;;;;;11.68;9.05;;;;;;;12.46;79.08;98600.78;4905155;29;20036;-78
2022/09/28 09:11:39;;;;;;;11.80;10.32;;;;;;;12.46;79.32;98600.78;4904921;29;20092;-79
2022/09/28 09:14:33;;;;;;;11.00;9.57;;;;;;;12.50;79.18;98597.09;4910465;29;20052;-78
2022/09/28 09:17:02;;;;;;;9.32;8.23;;;;;;;12.46;79.98;98599.94;4908053;29;20131;-79
2022/09/28 09:20:16;;;;;;;12.63;9.73;;;;;;;12.34;80.04;98606.66;4907473;29;20039;-78
2022/09/28 09:23:00;;;;;;;11.15;8.80;;;;;;;12.33;79.90;98614.66;4907209;29;20043;-78
2022/09/28 09:25:46;;;;;;;11.25;9.50;;;;;;;12.33;80.23;98609.34;4905763;29;20040;-79
2022/09/28 09:28:24;;;;;;;13.25;10.27;;;;;;;12.34;80.15;98611.06;4905402;29;20032;-79
2022/09/28 09:31:08;;;;;;;12.40;11.13;;;;;;;12.30;79.87;98614.78;4904491;29;20036;-78
2022/09/28 09:34:41;;;;;;;11.93;10.00;;;;;;;12.19;80.74;98609.97;4921398;29;20029;-79
2022/09/28 09:37:48;;;;;;;12.43;9.32;;;;;;;12.16;82.19;98603.03;4855718;29;20408;-79
2022/09/28 09:41:00;;;;;;;12.63;10.13;;;;;;;12.25;81.36;98607.91;4920035;29;20040;-79
2022/09/28 09:44:13;;;;;;;11.55;9.63;;;;;;;12.17;79.27;98609.16;4906718;29;20047;-79
2022/09/28 09:46:52;;;;;;;15.68;9.65;;;;;;;11.97;81.46;98602.97;4908436;29;20473;-78
2022/09/28 09:49:43;;;;;;;13.43;10.90;;;;;;;11.97;82.84;98610.00;4906267;29;20047;-79
2022/09/28 09:52:17;;;;;;;11.70;9.70;;;;;;;12.01;82.39;98608.97;4906697;29;20044;-79
2022/09/28 09:54:49;;;;;;;12.55;10.68;;;;;;;12.14;81.81;98601.38;4904969;29;20036;-79
2022/09/28 09:57:38;;;;;;;12.30;10.52;;;;;;;12.16;81.77;98596.88;4904236;29;20039;-78
2022/09/28 10:00:15;;;;;;;13.70;11.40;;;;;;;12.28;82.41;98601.59;4912765;29;20067;-79
2022/09/28 10:02:47;;;;;;;11.50;10.13;;;;;;;12.40;81.80;98600.22;4919075;29;20049;-79
2022/09/28 10:05:32;;;;;;;11.02;9.15;;;;;;;12.27;79.59;98603.41;4920798;29;20051;-78
2022/09/28 10:08:07;;;;;;;11.27;8.75;;;;;;;12.26;80.44;98607.00;4903280;29;20121;-79
2022/09/28 10:10:48;;;;;;;9.48;8.38;;;;;;;12.24;80.98;98602.69;4904391;29;20039;-79
2022/09/28 10:13:15;;;;;;;8.60;7.68;;;;;;;12.04;79.62;98609.69;4918770;29;20116;-79
2022/09/28 10:15:44;;;;;;;8.48;7.60;;;;;;;12.01;80.51;98608.97;4904815;29;20492;-78
2022/09/28 10:18:35;;;;;;;11.00;8.95;;;;;;;11.92;82.27;98609.34;4920004;29;20496;-78
2022/09/28 10:21:21;;;;;;;8.40;6.63;;;;;;;11.79;81.87;98615.13;4906182;29;20110;-79
2022/09/28 10:23:56;;;;;;;8.88;6.22;;;;;;;11.80;82.17;98611.56;4903170;29;20043;-79
2022/09/28 10:26:36;;;;;;;6.38;5.65;;;;;;;11.76;81.39;98614.38;4918524;29;20036;-78
2022/09/28 10:29:15;;;;;;;11.52;9.55;;;;;;;11.69;82.11;98610.28;4903527;29;20028;-78
2022/09/28 10:31:43;;;;;;;8.70;7.20;;;;;;;11.68;82.65;98609.41;4903281;29;20037;-78
2022/09/28 10:34:22;;;;;;;6.55;5.95;;;;;;;11.75;82.71;98610.03;4906890;29;20032;-79
2022/09/28 10:36:58;;;;;;;6.25;5.65;;;;;;;11.76;81.34;98607.34;4920884;29;20044;-79
2022/09/28 10:39:48;;;;;;;6.25;5.65;;;;;;;11.72;82.02;98607.53;4922438;29;20454;-79
2022/09/28 10:42:32;;;;;;;6.85;5.68;;;;;;;11.59;82.97;98602.72;4906428;29;20116;-79
2022/09/28 10:45:04;;;;;;;5.35;4.95;;;;;;;11.55;81.72;98605.56;4921114;29;20040;-79
2022/09/28 10:47:34;;;;;;;5.38;4.63;;;;;;;11.51;81.77;98601.34;4919350;29;20443;-79
2022/09/28 10:50:01;;;;;;;7.88;6.10;;;;;;;11.50;82.94;98610.16;4905230;29;20040;-79
2022/09/28 10:52:40;;;;;;;5.65;5.10;;;;;;;11.59;82.87;98607.16;4914569;29;20037;-79
2022/09/28 10:55:19;;;;;;;6.97;5.75;;;;;;;11.56;82.69;98607.28;4907113;29;20029;-78
2022/09/28 10:57:44;;;;;;;5.63;5.13;;;;;;;11.55;82.38;98605.56;4914488;29;20036;-79
2022/09/28 11:00:41;;;;;;;5.90;5.40;;;;;;;11.43;81.59;98609.56;4918696;29;20040;-79
2022/09/28 11:03:22;;;;;;;5.65;5.00;;;;;;;11.29;83.02;98606.59;4908400;29;20036;-79
2022/09/28 11:05:53;;;;;;;5.32;4.82;;;;;;;11.26;82.60;98609.38;4925271;29;20047;-79
2022/09/28 11:08:25;;;;;;;7.05;4.93;;;;;;;11.17;84.30;98606.16;4908301;29;20184;-79
2022/09/28 11:11:07;;;;;;;4.55;4.15;;;;;;;11.11;83.75;98602.94;4910458;29;20043;-79
2022/09/28 11:14:00;;;;;;;5.65;4.50;;;;;;;11.15;85.41;98600.09;4907808;29;20644;-78
2022/09/28 11:16:32;;;;;;;7.10;4.65;;;;;;;11.10;84.38;98603.81;4907438;29;20519;-78
2022/09/28 11:19:23;;;;;;;5.53;4.28;;;;;;;11.21;84.58;98595.47;4921975;29;20123;-79
2022/09/28 11:21:48;;;;;;;6.00;4.07;;;;;;;11.29;81.08;98604.84;4911903;29;20040;-78
2022/09/28 11:24:15;;;;;;;4.95;4.55;;;;;;;11.36;79.97;98600.16;4905482;29;20032;-78
2022/09/28 11:26:46;;;;;;;6.05;5.20;;;;;;;11.39;80.13;98602.66;4908575;29;20384;-79
2022/09/28 11:29:25;;;;;;;5.20;4.70;;;;;;;11.50;80.44;98597.84;4924717;29;20448;-79
2022/09/28 11:32:10;;;;;;;5.97;5.38;;;;;;;11.66;79.86;98598.06;4908092;29;20127;-78
2022/09/28 11:34:57;;;;;;;6.78;6.05;;;;;;;11.91;80.04;98597.06;4907493;29;20078;-78
2022/09/28 11:37:56;;;;;;;6.38;5.53;;;;;;;12.32;79.34;98602.34;4906924;29;20510;-79
2022/09/28 11:40:56;;;;;;;5.57;5.07;;;;;;;12.71;78.37;98589.97;4909449;29;20036;-78
2022/09/28 11:43:49;;;;;;;5.50;5.10;;;;;;;12.81;76.28;98595.72;4920060;29;20092;-79
2022/09/28 11:46:43;;;;;;;5.63;4.97;;;;;;;12.95;73.62;98595.06;4900122;29;20040;-79
2022/09/28 11:49:18;;;;;;;5.47;4.97;;;;;;;13.07;73.85;98599.78;4917580;29;20131;-79
2022/09/28 11:51:47;;;;;;;5.53;5.03;;;;;;;12.83;71.89;98601.78;4907681;29;20040;-79
2022/09/28 11:54:30;;;;;;;6.28;5.78;;;;;;;13.02;72.99;98601.81;4927967;29;20024;-79
2022/09/28 11:56:59;;;;;;;6.18;5.68;;;;;;;13.13;71.40;98596.84;4907604;29;20057;-79
2022/09/28 11:59:35;;;;;;;5.13;4.72;;;;;;;13.38;71.11;98607.16;4911559;29;20463;-78
2022/09/28 12:02:21;;;;;;;5.82;5.30;;;;;;;13.46;70.13;98604.13;4907624;29;20436;-79
2022/09/28 12:04:57;;;;;;;4.32;4.00;;;;;;;13.13;69.05;98607.44;4913449;29;20079;-79
2022/09/28 12:07:31;;;;;;;5.30;4.93;;;;;;;12.97;69.72;98606.44;4911034;29;20119;-79
2022/09/28 12:10:08;;;;;;;6.15;5.65;;;;;;;12.90;70.77;98610.31;4913721;29;20047;-79
2022/09/28 12:12:44;;;;;;;5.28;4.88;;;;;;;13.19;68.88;98613.38;4907567;29;20127;-79
2022/09/28 12:15:26;;;;;;;5.95;5.45;;;;;;;13.34;67.80;98616.19;4910406;29;20020;-79
2022/09/28 12:17:57;;;;;;;5.30;4.90;;;;;;;13.42;67.89;98607.88;4912063;29;20040;-79